Time;durP1;ratioP1;P1;durP2;ratioP2;P2;SDS_P1;SDS_P2;PMS_P1;PMS_P2;Temp;Humidity;BMP_temperature;BMP_pressure;BME280_temperature;BME280_humidity;BME280_pressure;Samples;Min_cycle;Max_cycle;Signal;HPM_P1;HPM_P2
2021/06/29 00:00:23;;;;;;;11.20;9.98;;;21.50;80.30;;;;;;5054068;28;20025;-83
2021/06/29 00:03:03;;;;;;;10.93;9.82;;;21.50;80.50;;;;;;5053913;28;20456;-83
2021/06/29 00:05:31;;;;;;;11.65;10.45;;;21.50;80.50;;;;;;5053723;28;20048;-83
2021/06/29 00:07:57;;;;;;;10.20;9.00;;;21.50;80.60;;;;;;5053532;28;20484;-83
2021/06/29 00:10:24;;;;;;;10.77;9.68;;;21.50;80.50;;;;;;5053667;28;20399;-83
2021/06/29 00:12:52;;;;;;;10.90;9.52;;;21.50;80.60;;;;;;5053728;28;20032;-83
2021/06/29 00:15:18;;;;;;;9.90;8.90;;;21.50;80.70;;;;;;5054527;28;20029;-83
2021/06/29 00:17:43;;;;;;;11.32;9.38;;;21.50;80.70;;;;;;5054776;28;20032;-83
2021/06/29 00:20:09;;;;;;;12.18;9.23;;;21.50;80.80;;;;;;5054491;28;20028;-82
2021/06/29 00:22:35;;;;;;;11.23;10.02;;;21.50;81.00;;;;;;5054908;28;20039;-82
2021/06/29 00:25:00;;;;;;;12.13;9.90;;;21.50;81.10;;;;;;5054885;28;20476;-83
2021/06/29 00:27:26;;;;;;;10.25;9.18;;;21.40;81.10;;;;;;5053015;28;20021;-82
2021/06/29 00:29:51;;;;;;;11.20;9.98;;;21.40;81.30;;;;;;5054243;28;20100;-82
2021/06/29 00:32:17;;;;;;;10.18;8.93;;;21.40;81.50;;;;;;5054327;28;20477;-83
2021/06/29 00:34:43;;;;;;;10.77;9.50;;;21.30;81.50;;;;;;5054074;28;20453;-83
2021/06/29 00:37:08;;;;;;;10.65;8.77;;;21.30;81.60;;;;;;5052877;28;20060;-83
2021/06/29 00:39:34;;;;;;;10.13;9.10;;;21.30;81.70;;;;;;5052654;28;20500;-83
2021/06/29 00:41:59;;;;;;;9.95;8.38;;;21.20;81.70;;;;;;5053942;28;20534;-82
2021/06/29 00:44:25;;;;;;;10.88;8.43;;;21.30;81.80;;;;;;5052651;28;20456;-82
2021/06/29 00:46:52;;;;;;;9.45;8.35;;;21.30;81.80;;;;;;5052765;28;20088;-83
2021/06/29 00:49:18;;;;;;;9.07;7.93;;;21.30;81.70;;;;;;5053307;28;20025;-81
2021/06/29 00:51:43;;;;;;;9.50;7.57;;;21.30;81.70;;;;;;5052540;28;20162;-82
2021/06/29 00:54:11;;;;;;;8.70;7.38;;;21.40;81.70;;;;;;5053741;28;20029;-83
2021/06/29 00:56:37;;;;;;;9.07;7.63;;;21.30;81.70;;;;;;5052806;28;20048;-84
2021/06/29 00:59:03;;;;;;;10.00;8.57;;;21.30;81.60;;;;;;5052543;28;20021;-83
2021/06/29 01:01:29;;;;;;;10.07;8.50;;;21.40;81.70;;;;;;5053423;28;20036;-83
2021/06/29 01:03:55;;;;;;;9.10;7.97;;;21.30;81.70;;;;;;5053483;28;20029;-83
2021/06/29 01:06:20;;;;;;;8.25;7.38;;;21.30;81.70;;;;;;5053794;28;20461;-82
2021/06/29 01:08:46;;;;;;;8.40;7.50;;;21.30;81.70;;;;;;5053680;28;20100;-83
2021/06/29 01:11:12;;;;;;;8.02;7.22;;;21.30;82.30;;;;;;5052251;28;20499;-82
2021/06/29 01:13:40;;;;;;;8.98;7.70;;;21.30;81.70;;;;;;5052187;28;20033;-84
2021/06/29 01:16:07;;;;;;;8.43;6.88;;;21.30;81.70;;;;;;5052111;28;20063;-83
2021/06/29 01:18:33;;;;;;;9.75;7.30;;;21.30;81.80;;;;;;5052119;28;20071;-84
2021/06/29 01:20:59;;;;;;;8.43;7.15;;;21.30;81.90;;;;;;5051901;28;20067;-83
2021/06/29 01:23:27;;;;;;;9.27;7.03;;;21.30;81.90;;;;;;5052064;28;20021;-83
2021/06/29 01:26:23;;;;;;;8.98;7.07;;;21.30;81.90;;;;;;5053206;28;20492;-82
2021/06/29 01:28:57;;;;;;;8.23;7.35;;;21.30;82.00;;;;;;5052113;28;20091;-81
2021/06/29 01:31:23;;;;;;;8.93;7.43;;;21.30;81.90;;;;;;5051847;28;20108;-80
2021/06/29 01:33:49;;;;;;;8.90;7.30;;;21.30;82.00;;;;;;5051854;28;20060;-83
2021/06/29 01:36:17;;;;;;;9.73;7.50;;;21.20;82.00;;;;;;5052218;28;20108;-83
2021/06/29 01:38:46;;;;;;;9.00;6.68;;;21.20;82.00;;;;;;5053345;28;20440;-82
2021/06/29 01:41:14;;;;;;;10.68;7.90;;;21.20;82.10;;;;;;5052967;28;20047;-83
2021/06/29 01:43:46;;;;;;;11.43;7.80;;;21.20;82.20;;;;;;5051595;28;20481;-82
2021/06/29 01:46:13;;;;;;;8.65;7.47;;;21.20;82.20;;;;;;5051710;28;20013;-81
2021/06/29 01:48:49;;;;;;;10.10;7.57;;;21.20;82.20;;;;;;5052912;28;20025;-82
2021/06/29 01:51:16;;;;;;;11.73;8.30;;;21.20;82.30;;;;;;5053105;28;20032;-83
2021/06/29 01:53:42;;;;;;;9.60;8.18;;;21.20;82.30;;;;;;5052897;28;20087;-82
2021/06/29 01:56:14;;;;;;;10.52;8.18;;;21.10;82.20;;;;;;5051664;28;20025;-82
2021/06/29 01:58:49;;;;;;;12.17;9.10;;;21.10;82.30;;;;;;5056302;28;20025;-82
2021/06/29 02:01:15;;;;;;;11.70;9.10;;;21.10;82.40;;;;;;5055647;28;20032;-82
2021/06/29 02:03:40;;;;;;;11.75;8.57;;;21.10;82.40;;;;;;5055577;28;20037;-82
2021/06/29 02:06:06;;;;;;;11.25;8.77;;;21.10;82.50;;;;;;5055934;28;20028;-81
2021/06/29 02:08:32;;;;;;;9.23;7.45;;;21.10;82.60;;;;;;5056867;28;20469;-82
2021/06/29 02:10:57;;;;;;;9.75;7.88;;;21.00;82.70;;;;;;5056738;28;20393;-82
2021/06/29 02:13:24;;;;;;;9.85;7.85;;;21.00;82.70;;;;;;5055544;28;20087;-82
2021/06/29 02:15:50;;;;;;;8.85;7.95;;;20.90;82.90;;;;;;5055533;28;20021;-83
2021/06/29 02:18:16;;;;;;;8.43;7.57;;;20.90;83.00;;;;;;5056970;28;20017;-82
2021/06/29 02:20:42;;;;;;;9.73;8.20;;;20.90;83.10;;;;;;5055350;28;20430;-83
2021/06/29 02:23:08;;;;;;;9.27;8.38;;;20.90;83.20;;;;;;5056651;28;20115;-81
2021/06/29 02:25:33;;;;;;;8.98;7.70;;;20.80;83.30;;;;;;5055185;28;20074;-82
2021/06/29 02:27:59;;;;;;;8.50;7.70;;;20.80;83.40;;;;;;5056696;28;20025;-82
2021/06/29 02:30:24;;;;;;;9.77;7.97;;;20.70;83.60;;;;;;5055213;28;20013;-81
2021/06/29 02:32:50;;;;;;;8.40;7.60;;;20.70;83.70;;;;;;5056848;28;20087;-81
2021/06/29 02:35:16;;;;;;;9.35;8.45;;;20.70;83.80;;;;;;5055060;28;20128;-82
2021/06/29 02:37:41;;;;;;;8.45;7.43;;;20.70;83.80;;;;;;5055664;28;20033;-83
2021/06/29 02:40:09;;;;;;;8.50;7.70;;;20.70;83.90;;;;;;5056326;28;20082;-82
2021/06/29 02:42:35;;;;;;;8.93;8.05;;;20.60;83.90;;;;;;5055220;28;20021;-82
2021/06/29 02:45:07;;;;;;;8.63;7.80;;;20.60;84.10;;;;;;5056263;28;20025;-82
2021/06/29 02:47:34;;;;;;;12.75;7.95;;;20.60;84.20;;;;;;5054740;28;20051;-81
2021/06/29 02:50:01;;;;;;;12.52;9.25;;;20.70;84.10;;;;;;5054815;28;20029;-82
2021/06/29 02:52:26;;;;;;;17.02;10.15;;;20.60;84.20;;;;;;5055893;28;20021;-81
2021/06/29 02:54:52;;;;;;;10.15;9.07;;;20.50;84.30;;;;;;5051856;28;20083;-81
2021/06/29 02:57:17;;;;;;;20.85;9.05;;;20.40;84.50;;;;;;5054777;28;20057;-81
2021/06/29 02:59:44;;;;;;;13.10;9.20;;;20.40;84.70;;;;;;5054475;28;20029;-81
2021/06/29 03:02:09;;;;;;;14.05;10.40;;;20.40;84.80;;;;;;5054466;28;20505;-81
2021/06/29 03:04:35;;;;;;;9.02;8.13;;;20.40;84.90;;;;;;5054285;28;20048;-83
2021/06/29 03:07:00;;;;;;;9.75;8.73;;;20.30;85.00;;;;;;5054657;28;20021;-80
2021/06/29 03:09:26;;;;;;;10.13;8.77;;;20.30;85.10;;;;;;5055590;28;20036;-80
2021/06/29 03:11:52;;;;;;;8.27;7.47;;;20.30;85.10;;;;;;5055594;28;20095;-81
2021/06/29 03:14:17;;;;;;;8.93;8.02;;;20.40;85.20;;;;;;5054387;28;20522;-79
2021/06/29 03:16:43;;;;;;;8.88;7.70;;;20.40;85.10;;;;;;5055462;28;20538;-81
2021/06/29 03:19:09;;;;;;;11.35;8.55;;;20.50;85.10;;;;;;5054294;28;20139;-81
2021/06/29 03:21:35;;;;;;;8.50;7.40;;;20.50;85.00;;;;;;5054314;28;20464;-81
2021/06/29 03:24:00;;;;;;;11.20;8.50;;;20.60;84.90;;;;;;5055565;28;20021;-81
2021/06/29 03:26:26;;;;;;;8.30;7.50;;;20.60;84.90;;;;;;5055515;28;20029;-80
2021/06/29 03:28:51;;;;;;;9.35;8.38;;;20.50;84.90;;;;;;5054257;28;20013;-81
2021/06/29 03:31:17;;;;;;;9.15;8.25;;;20.60;85.00;;;;;;5055748;28;20064;-80
2021/06/29 03:33:43;;;;;;;8.45;7.65;;;20.60;84.90;;;;;;5055180;28;20013;-80
2021/06/29 03:36:09;;;;;;;8.00;7.20;;;20.60;85.00;;;;;;5053999;28;20393;-81
2021/06/29 03:38:35;;;;;;;7.97;7.18;;;20.60;85.00;;;;;;5055312;28;20020;-77
2021/06/29 03:41:00;;;;;;;7.75;6.95;;;20.60;85.10;;;;;;5053681;28;20473;-78
2021/06/29 03:43:26;;;;;;;7.57;6.88;;;20.60;85.10;;;;;;5053759;28;20067;-78
2021/06/29 03:45:52;;;;;;;7.93;7.15;;;20.60;85.10;;;;;;5053711;28;20392;-78
2021/06/29 03:48:17;;;;;;;7.60;6.88;;;20.60;85.00;;;;;;5055129;28;20035;-78
2021/06/29 03:50:43;;;;;;;7.75;7.05;;;20.70;85.00;;;;;;5053546;28;20535;-78
2021/06/29 03:53:09;;;;;;;7.82;7.03;;;20.70;84.90;;;;;;5054158;28;20025;-79
2021/06/29 03:55:35;;;;;;;7.78;7.00;;;20.70;84.90;;;;;;5053485;28;20032;-79
2021/06/29 03:58:00;;;;;;;8.38;7.45;;;20.80;84.90;;;;;;5053594;28;20079;-78
2021/06/29 04:00:26;;;;;;;7.95;7.15;;;20.80;84.90;;;;;;5054566;28;20477;-79
2021/06/29 04:02:52;;;;;;;8.25;7.40;;;20.80;84.80;;;;;;5053262;28;20389;-79
2021/06/29 04:05:17;;;;;;;9.00;8.07;;;20.80;84.80;;;;;;5053376;28;20090;-79
2021/06/29 04:07:44;;;;;;;8.32;7.50;;;20.80;84.70;;;;;;5053813;28;20027;-78
2021/06/29 04:10:10;;;;;;;10.02;7.40;;;20.90;84.70;;;;;;5053365;28;20377;-79
2021/06/29 04:12:36;;;;;;;7.90;7.13;;;20.90;84.70;;;;;;5053531;28;20071;-79
2021/06/29 04:15:02;;;;;;;8.20;7.40;;;20.90;84.70;;;;;;5053524;28;20021;-79
2021/06/29 04:17:27;;;;;;;8.35;7.55;;;21.00;84.60;;;;;;5053111;28;20017;-78
2021/06/29 04:19:53;;;;;;;8.13;7.32;;;21.00;84.50;;;;;;5052530;28;20021;-78
2021/06/29 04:22:19;;;;;;;8.23;7.43;;;21.00;84.50;;;;;;5053697;28;20037;-78
2021/06/29 04:24:44;;;;;;;8.27;7.47;;;21.00;84.40;;;;;;5053280;28;20455;-78
2021/06/29 04:27:10;;;;;;;8.35;7.43;;;21.10;84.50;;;;;;5053150;28;20349;-78
2021/06/29 04:29:35;;;;;;;8.25;7.45;;;21.00;84.30;;;;;;5054765;28;20032;-78
2021/06/29 04:32:01;;;;;;;8.02;7.15;;;21.00;84.30;;;;;;5052932;28;20056;-78
2021/06/29 04:34:27;;;;;;;8.65;7.75;;;21.00;84.40;;;;;;5053123;28;20056;-78
2021/06/29 04:36:52;;;;;;;8.32;7.50;;;21.10;84.50;;;;;;5052956;28;20634;-78
2021/06/29 04:39:19;;;;;;;8.30;7.50;;;21.10;85.10;;;;;;5052957;28;20419;-78
2021/06/29 04:45:07;;;;;;;8.85;7.93;;;21.10;84.40;;;;;;5054526;28;20078;-78
2021/06/29 04:47:39;;;;;;;8.48;7.57;;;21.10;84.90;;;;;;5052663;28;20016;-78
2021/06/29 04:50:05;;;;;;;8.23;7.43;;;21.10;84.30;;;;;;5052489;28;20032;-77
2021/06/29 04:52:32;;;;;;;8.60;7.80;;;21.10;84.30;;;;;;5054024;28;20032;-77
2021/06/29 04:54:58;;;;;;;9.07;7.82;;;21.20;84.40;;;;;;5053672;28;20082;-78
2021/06/29 04:57:24;;;;;;;8.27;7.25;;;21.20;84.30;;;;;;5053902;28;20441;-78
2021/06/29 04:59:49;;;;;;;8.85;7.97;;;21.20;84.20;;;;;;5052922;28;20378;-79
2021/06/29 05:02:15;;;;;;;9.80;8.85;;;21.30;84.20;;;;;;5053660;28;20384;-77
2021/06/29 05:04:40;;;;;;;9.55;8.00;;;21.30;84.20;;;;;;5052677;28;20396;-77
2021/06/29 05:07:06;;;;;;;8.55;7.60;;;21.30;84.30;;;;;;5053638;28;20473;-77
2021/06/29 05:09:32;;;;;;;8.82;7.93;;;21.20;84.20;;;;;;5052264;28;20027;-78
2021/06/29 05:11:57;;;;;;;8.73;7.82;;;21.20;84.20;;;;;;5051991;28;20025;-77
2021/06/29 05:14:23;;;;;;;8.70;7.65;;;21.30;84.30;;;;;;5053408;28;20068;-78
2021/06/29 05:16:48;;;;;;;8.60;7.70;;;21.30;84.30;;;;;;5053407;28;20024;-78
2021/06/29 05:19:14;;;;;;;8.23;7.38;;;21.30;84.30;;;;;;5053420;28;20085;-77
2021/06/29 05:21:39;;;;;;;8.65;7.47;;;21.40;84.30;;;;;;5052092;28;20028;-77
2021/06/29 05:24:05;;;;;;;8.82;6.97;;;21.40;84.20;;;;;;5052360;28;20021;-77
2021/06/29 05:26:31;;;;;;;8.23;7.32;;;21.40;84.10;;;;;;5052030;28;20056;-77
2021/06/29 05:28:56;;;;;;;8.70;7.80;;;21.40;84.10;;;;;;5052112;28;20021;-78
2021/06/29 05:31:22;;;;;;;8.15;7.28;;;21.40;84.10;;;;;;5051668;28;20552;-78
2021/06/29 05:33:48;;;;;;;9.98;8.32;;;21.40;84.10;;;;;;5052938;28;20099;-76
2021/06/29 05:36:13;;;;;;;8.63;7.75;;;21.40;84.10;;;;;;5051744;28;20017;-78
2021/06/29 05:38:39;;;;;;;7.97;7.13;;;21.50;84.10;;;;;;5053113;28;20461;-77
2021/06/29 05:41:05;;;;;;;8.00;7.20;;;21.50;84.10;;;;;;5051692;28;20025;-77
2021/06/29 05:47:09;;;;;;;7.28;6.57;;;21.60;83.90;;;;;;5053345;28;20055;-79
2021/06/29 05:49:36;;;;;;;7.60;6.82;;;21.60;83.80;;;;;;5051683;28;20032;-79
2021/06/29 05:52:02;;;;;;;8.23;7.43;;;21.60;83.80;;;;;;5051469;28;20024;-78
2021/06/29 05:54:27;;;;;;;7.75;7.00;;;21.60;83.80;;;;;;5051402;28;20137;-78
2021/06/29 05:56:53;;;;;;;8.57;7.28;;;21.60;83.80;;;;;;5051321;28;20166;-78
2021/06/29 05:59:19;;;;;;;8.02;7.22;;;21.60;83.80;;;;;;5051324;28;20468;-78
2021/06/29 06:01:44;;;;;;;8.20;7.40;;;21.60;83.80;;;;;;5051357;28;20025;-79
2021/06/29 06:04:10;;;;;;;8.57;7.65;;;21.60;83.80;;;;;;5052667;28;20040;-78
2021/06/29 06:06:36;;;;;;;7.97;7.25;;;21.60;83.80;;;;;;5051370;28;20044;-78
2021/06/29 06:09:01;;;;;;;7.63;6.82;;;21.60;83.80;;;;;;5051721;28;20108;-78
2021/06/29 06:11:27;;;;;;;7.57;6.88;;;21.60;83.80;;;;;;5053022;28;20021;-79
2021/06/29 06:13:52;;;;;;;7.93;7.13;;;21.70;83.70;;;;;;5052883;28;20025;-79
2021/06/29 06:16:18;;;;;;;7.95;7.15;;;21.70;83.50;;;;;;5051317;28;20039;-78
2021/06/29 06:18:44;;;;;;;8.60;7.80;;;21.80;83.20;;;;;;5051343;28;20021;-76
2021/06/29 06:21:10;;;;;;;9.45;7.82;;;21.80;83.10;;;;;;5052579;28;20083;-78
2021/06/29 06:23:37;;;;;;;9.85;8.85;;;21.90;83.10;;;;;;5051415;28;20052;-79
2021/06/29 06:26:02;;;;;;;8.52;7.63;;;22.00;82.90;;;;;;5051527;28;20029;-78
2021/06/29 06:28:28;;;;;;;10.30;9.00;;;22.00;82.70;;;;;;5051294;28;20496;-78
2021/06/29 06:30:53;;;;;;;11.35;9.82;;;22.10;82.60;;;;;;5051308;28;20019;-79
2021/06/29 06:33:20;;;;;;;11.73;10.00;;;22.20;82.40;;;;;;5051322;28;20083;-79
2021/06/29 06:35:46;;;;;;;10.77;9.52;;;22.20;82.30;;;;;;5051486;28;20476;-79
2021/06/29 06:38:12;;;;;;;9.55;8.63;;;22.20;83.00;;;;;;5051351;28;20032;-78
2021/06/29 06:40:37;;;;;;;9.70;8.70;;;22.20;82.30;;;;;;5052679;28;20032;-79
2021/06/29 06:43:03;;;;;;;10.30;9.20;;;22.30;82.20;;;;;;5053269;28;20421;-79
2021/06/29 06:45:29;;;;;;;10.38;9.25;;;22.30;82.00;;;;;;5055414;28;20492;-79
2021/06/29 06:47:55;;;;;;;10.88;9.65;;;22.30;82.00;;;;;;5056630;28;20027;-80
2021/06/29 06:50:21;;;;;;;9.80;8.80;;;22.30;81.90;;;;;;5056240;28;20025;-79
2021/06/29 06:52:47;;;;;;;9.93;8.93;;;22.30;81.80;;;;;;5054993;28;20112;-79
2021/06/29 06:55:13;;;;;;;11.30;9.80;;;22.30;81.80;;;;;;5054664;28;20488;-79
2021/06/29 06:57:41;;;;;;;9.82;8.82;;;22.30;81.80;;;;;;5055323;28;20488;-77
2021/06/29 07:00:08;;;;;;;10.52;9.43;;;22.30;81.60;;;;;;5055289;28;20017;-76
2021/06/29 07:02:33;;;;;;;10.15;9.07;;;22.30;81.50;;;;;;5057666;28;20029;-78
2021/06/29 07:04:59;;;;;;;10.90;8.85;;;22.40;81.40;;;;;;5056531;28;20060;-78
2021/06/29 07:07:25;;;;;;;9.75;8.75;;;22.40;81.30;;;;;;5055093;28;20009;-78
2021/06/29 07:09:50;;;;;;;10.10;8.88;;;22.40;81.30;;;;;;5056300;28;20036;-78
2021/06/29 07:12:16;;;;;;;11.23;10.02;;;22.40;81.20;;;;;;5055003;28;20021;-77
2021/06/29 07:14:41;;;;;;;11.40;10.20;;;22.30;81.20;;;;;;5054981;28;20542;-78
2021/06/29 07:17:07;;;;;;;10.25;9.15;;;22.30;81.30;;;;;;5054376;28;20029;-77
2021/06/29 07:19:33;;;;;;;10.07;9.07;;;22.20;81.40;;;;;;5055547;28;20024;-78
2021/06/29 07:21:58;;;;;;;11.32;10.07;;;22.20;81.50;;;;;;5055597;28;20401;-78
2021/06/29 07:24:24;;;;;;;9.75;8.85;;;22.20;81.50;;;;;;5054298;28;20028;-77
2021/06/29 07:26:49;;;;;;;10.55;9.15;;;22.10;81.50;;;;;;5054271;28;20021;-77
2021/06/29 07:29:15;;;;;;;10.52;9.43;;;22.10;81.50;;;;;;5054018;28;20039;-79
2021/06/29 07:31:41;;;;;;;10.05;9.02;;;22.00;81.40;;;;;;5053925;28;20029;-77
2021/06/29 07:34:06;;;;;;;10.75;9.65;;;22.10;81.50;;;;;;5053919;28;20017;-77
2021/06/29 07:36:32;;;;;;;11.52;10.32;;;22.00;81.50;;;;;;5055364;28;20025;-78
2021/06/29 07:38:58;;;;;;;10.50;9.40;;;21.90;81.50;;;;;;5053750;28;20044;-77
2021/06/29 07:41:24;;;;;;;11.23;9.98;;;21.90;81.60;;;;;;5053801;28;20017;-77
2021/06/29 07:43:50;;;;;;;10.82;9.73;;;21.90;81.70;;;;;;5053627;28;20392;-79
2021/06/29 07:46:16;;;;;;;10.70;9.60;;;21.90;81.80;;;;;;5054213;28;20025;-77
2021/06/29 07:48:41;;;;;;;10.07;9.07;;;22.00;81.80;;;;;;5053660;28;20053;-79
2021/06/29 07:51:09;;;;;;;10.02;8.98;;;22.00;81.70;;;;;;5054837;28;20105;-77
2021/06/29 07:53:35;;;;;;;9.82;8.82;;;22.10;81.60;;;;;;5053418;28;20067;-77
2021/06/29 07:56:01;;;;;;;10.70;9.60;;;22.20;81.50;;;;;;5052655;28;20048;-79
2021/06/29 07:58:28;;;;;;;10.88;9.77;;;22.20;81.30;;;;;;5053474;28;20021;-79
2021/06/29 08:00:55;;;;;;;11.05;9.85;;;22.20;81.20;;;;;;5055067;28;20021;-81
2021/06/29 08:03:20;;;;;;;10.40;9.40;;;22.10;81.20;;;;;;5053787;28;20370;-78
2021/06/29 08:05:46;;;;;;;10.07;9.07;;;22.00;81.50;;;;;;5055058;28;20029;-81
2021/06/29 08:08:11;;;;;;;10.02;9.02;;;21.90;81.60;;;;;;5054923;28;20021;-80
2021/06/29 08:10:37;;;;;;;9.70;8.70;;;21.90;81.70;;;;;;5053712;28;20481;-81
2021/06/29 08:13:07;;;;;;;9.70;8.80;;;21.90;81.70;;;;;;5053499;28;20021;-80
2021/06/29 08:15:33;;;;;;;9.73;8.68;;;22.00;82.40;;;;;;5053468;28;20032;-79
2021/06/29 08:17:59;;;;;;;9.75;8.75;;;21.90;81.60;;;;;;5054142;28;20029;-82
2021/06/29 08:20:25;;;;;;;9.48;8.57;;;22.00;81.70;;;;;;5053808;28;20358;-82
2021/06/29 08:22:53;;;;;;;9.55;8.63;;;22.00;81.50;;;;;;5054348;28;20040;-84
2021/06/29 08:25:21;;;;;;;9.15;8.25;;;22.10;81.30;;;;;;5052166;28;20025;-82
2021/06/29 08:27:47;;;;;;;9.35;8.30;;;22.20;81.10;;;;;;5055221;28;20063;-82
2021/06/29 08:30:13;;;;;;;9.32;8.40;;;22.20;80.90;;;;;;5053600;28;20385;-82
2021/06/29 08:32:39;;;;;;;10.35;8.55;;;22.20;80.90;;;;;;5053377;28;20025;-80
2021/06/29 08:35:10;;;;;;;9.68;8.77;;;22.20;81.00;;;;;;5054933;28;20071;-82
2021/06/29 08:37:36;;;;;;;10.05;9.05;;;22.10;80.90;;;;;;5053788;28;20080;-82
2021/06/29 08:40:04;;;;;;;9.80;8.43;;;22.10;80.90;;;;;;5053264;28;20108;-82
2021/06/29 08:42:33;;;;;;;10.35;9.35;;;22.00;80.90;;;;;;5053284;28;20071;-83
2021/06/29 08:45:00;;;;;;;9.68;8.68;;;22.00;81.00;;;;;;5053260;28;20032;-82
2021/06/29 08:47:25;;;;;;;9.65;8.60;;;22.00;80.90;;;;;;5053444;28;20024;-84
2021/06/29 08:49:51;;;;;;;9.02;8.23;;;21.90;80.90;;;;;;5054684;28;20083;-83
2021/06/29 08:52:17;;;;;;;8.82;7.93;;;21.90;80.90;;;;;;5054841;28;20500;-83
2021/06/29 08:54:43;;;;;;;8.90;8.00;;;21.80;81.00;;;;;;5053553;28;20021;-82
2021/06/29 08:57:09;;;;;;;9.38;7.88;;;21.80;81.10;;;;;;5054068;28;20025;-82
2021/06/29 08:59:35;;;;;;;9.85;8.82;;;21.80;81.20;;;;;;5052940;28;20361;-85
2021/06/29 09:02:02;;;;;;;10.73;9.63;;;21.70;81.10;;;;;;5053033;28;20036;-83
2021/06/29 09:04:43;;;;;;;11.48;10.27;;;21.60;81.20;;;;;;5052528;28;20040;-83
2021/06/29 09:07:28;;;;;;;13.02;11.00;;;21.50;81.60;;;;;;5052327;28;20025;-79
2021/06/29 09:09:57;;;;;;;11.80;10.60;;;21.40;81.80;;;;;;5053527;28;20492;-79
2021/06/29 09:12:45;;;;;;;13.85;12.30;;;21.30;82.20;;;;;;5052175;28;20028;-79
2021/06/29 09:18:35;;;;;;;14.18;11.98;;;21.20;82.80;;;;;;5054001;28;20028;-80
2021/06/29 09:21:06;;;;;;;15.65;13.98;;;21.00;82.90;;;;;;5052499;28;20032;-81
2021/06/29 09:23:39;;;;;;;13.93;12.38;;;21.00;83.10;;;;;;5052140;28;20074;-81
2021/06/29 09:26:10;;;;;;;15.82;13.13;;;21.00;83.30;;;;;;5053254;28;20025;-81
2021/06/29 09:28:39;;;;;;;13.55;12.18;;;21.00;83.40;;;;;;5051793;28;20044;-79
2021/06/29 09:31:08;;;;;;;13.75;12.35;;;21.00;83.50;;;;;;5053331;28;20021;-79
2021/06/29 09:33:51;;;;;;;14.13;12.63;;;21.00;83.40;;;;;;5051712;28;20116;-79
2021/06/29 09:36:20;;;;;;;12.27;11.07;;;21.00;83.40;;;;;;5052276;28;20434;-79
2021/06/29 09:38:47;;;;;;;12.88;11.48;;;21.10;83.30;;;;;;5049320;28;20033;-79
2021/06/29 09:41:18;;;;;;;13.73;12.27;;;21.20;83.20;;;;;;5052246;28;20508;-78
2021/06/29 09:43:46;;;;;;;12.90;11.55;;;21.30;83.20;;;;;;5051852;28;20465;-81
2021/06/29 09:46:13;;;;;;;14.23;12.82;;;21.40;83.00;;;;;;5052004;28;20473;-81
2021/06/29 09:48:45;;;;;;;12.52;11.32;;;21.60;82.80;;;;;;5051691;28;20017;-78
2021/06/29 09:51:17;;;;;;;13.40;11.98;;;21.70;82.50;;;;;;5051694;28;20021;-80
2021/06/29 09:53:45;;;;;;;11.77;10.57;;;21.90;82.10;;;;;;5051904;28;20116;-84
2021/06/29 09:56:17;;;;;;;11.90;10.70;;;22.10;82.00;;;;;;5052017;28;20023;-77
2021/06/29 09:58:51;;;;;;;11.43;10.30;;;22.30;81.60;;;;;;5051514;28;20036;-80
2021/06/29 10:01:19;;;;;;;12.57;11.38;;;22.50;81.30;;;;;;5052731;28;20147;-81
2021/06/29 10:03:45;;;;;;;10.82;9.80;;;22.60;80.80;;;;;;5051348;28;20045;-79
2021/06/29 10:06:23;;;;;;;11.40;10.30;;;22.70;80.80;;;;;;5051587;28;20496;-78
2021/06/29 10:09:06;;;;;;;10.80;9.70;;;22.80;80.70;;;;;;5052785;28;20021;-81
2021/06/29 10:11:34;;;;;;;10.57;9.57;;;23.00;80.40;;;;;;5052599;28;20029;-79
2021/06/29 10:14:08;;;;;;;9.68;8.77;;;23.10;80.00;;;;;;5051409;28;20107;-79
2021/06/29 10:16:37;;;;;;;9.85;8.85;;;23.30;79.80;;;;;;5052705;28;20362;-78
2021/06/29 10:21:50;;;;;;;11.82;10.73;;;23.50;78.80;;;;;;5056909;28;20045;-84
2021/06/29 10:24:20;;;;;;;11.82;10.57;;;23.40;78.40;;;;;;5055446;28;20469;-81
2021/06/29 10:26:48;;;;;;;12.52;11.35;;;23.30;78.30;;;;;;5055186;28;20021;-81
2021/06/29 10:29:17;;;;;;;12.32;11.23;;;23.20;78.20;;;;;;5055266;28;20017;-81
2021/06/29 10:31:46;;;;;;;12.50;11.30;;;23.10;78.10;;;;;;5054883;28;20025;-81
2021/06/29 10:34:18;;;;;;;13.75;12.45;;;23.10;78.10;;;;;;5055118;28;20123;-81
2021/06/29 10:36:47;;;;;;;13.30;11.88;;;23.00;78.00;;;;;;5056363;28;20134;-82
2021/06/29 10:39:24;;;;;;;10.70;9.70;;;23.00;77.90;;;;;;5055670;28;20060;-82
2021/06/29 10:42:04;;;;;;;11.23;10.23;;;23.00;78.10;;;;;;5055094;28;20559;-83
2021/06/29 10:44:36;;;;;;;10.43;9.48;;;23.10;77.90;;;;;;5055438;28;20025;-82
2021/06/29 10:47:02;;;;;;;10.93;9.57;;;23.30;77.80;;;;;;5055035;28;20025;-81
2021/06/29 10:49:39;;;;;;;10.32;9.43;;;23.40;77.70;;;;;;5055804;28;20384;-82
2021/06/29 10:52:22;;;;;;;10.38;9.48;;;23.50;77.40;;;;;;5054697;28;20031;-81
2021/06/29 10:54:50;;;;;;;10.90;9.80;;;23.50;77.20;;;;;;5055396;28;20028;-81
2021/06/29 10:57:19;;;;;;;11.27;10.05;;;23.40;77.20;;;;;;5056771;28;20392;-79
2021/06/29 10:59:49;;;;;;;11.95;10.80;;;23.40;77.30;;;;;;5054577;28;20401;-79
2021/06/29 11:02:31;;;;;;;11.50;10.40;;;23.30;77.30;;;;;;5054590;28;20135;-80
2021/06/29 11:05:05;;;;;;;10.90;9.93;;;23.20;77.50;;;;;;5054455;28;20043;-81
2021/06/29 11:07:31;;;;;;;10.48;9.57;;;23.10;77.50;;;;;;5054614;28;20071;-81
2021/06/29 11:10:11;;;;;;;11.90;10.80;;;23.00;77.70;;;;;;5054604;28;20021;-80
2021/06/29 11:12:51;;;;;;;11.70;10.60;;;23.00;77.80;;;;;;5054484;28;20025;-80
2021/06/29 11:15:18;;;;;;;9.93;8.93;;;23.00;77.80;;;;;;5054529;28;20025;-80
2021/06/29 11:17:52;;;;;;;10.18;9.18;;;23.00;77.80;;;;;;5055693;28;20033;-81
2021/06/29 11:20:19;;;;;;;10.93;9.98;;;23.10;77.70;;;;;;5054201;28;20025;-80
2021/06/29 11:23:04;;;;;;;8.95;8.23;;;23.20;77.30;;;;;;5055582;28;20124;-80
2021/06/29 11:25:39;;;;;;;9.55;8.63;;;23.40;77.30;;;;;;5055014;28;20021;-81
2021/06/29 11:28:25;;;;;;;8.63;7.82;;;23.50;76.90;;;;;;5056222;28;20531;-83
2021/06/29 11:30:50;;;;;;;9.95;9.05;;;23.80;76.40;;;;;;5054623;28;20027;-80
2021/06/29 11:33:46;;;;;;;8.95;8.13;;;23.90;75.80;;;;;;5054524;28;20029;-81
2021/06/29 11:36:23;;;;;;;8.50;7.75;;;24.00;75.20;;;;;;5054558;28;20017;-81
2021/06/29 11:38:56;;;;;;;9.75;8.75;;;24.20;75.20;;;;;;5054490;28;20540;-81
2021/06/29 11:41:24;;;;;;;9.43;8.55;;;24.20;74.80;;;;;;5054332;28;20084;-80
2021/06/29 11:43:51;;;;;;;9.90;9.00;;;24.30;74.70;;;;;;5055123;28;20025;-80
2021/06/29 11:46:55;;;;;;;9.32;8.52;;;24.20;74.40;;;;;;5053795;28;20031;-81
2021/06/29 11:49:28;;;;;;;;;;;24.30;74.20;;;;;;5054266;28;20017;-81
2021/06/29 11:51:59;;;;;;;6.68;6.07;;;24.40;74.30;;;;;;5053620;28;19904;-81
2021/06/29 11:54:31;;;;;;;7.05;6.40;;;24.60;74.00;;;;;;5053644;28;20127;-81
2021/06/29 11:56:59;;;;;;;8.35;7.22;;;24.90;73.10;;;;;;5054636;28;20389;-81
2021/06/29 11:59:26;;;;;;;6.68;5.70;;;25.10;72.40;;;;;;5053325;28;20475;-81
2021/06/29 12:02:01;;;;;;;6.70;6.00;;;25.20;71.80;;;;;;5053412;28;20142;-81
2021/06/29 12:04:27;;;;;;;6.90;5.93;;;25.30;71.50;;;;;;5053017;28;20045;-80
2021/06/29 12:07:06;;;;;;;7.03;6.32;;;25.40;71.20;;;;;;5054447;28;20021;-81
2021/06/29 12:09:36;;;;;;;7.03;6.32;;;25.40;70.20;;;;;;5053397;28;20504;-81
2021/06/29 12:12:22;;;;;;;7.20;6.60;;;25.40;70.00;;;;;;5052939;28;20028;-81
2021/06/29 12:14:58;;;;;;;6.72;5.82;;;25.40;69.90;;;;;;5052903;28;20021;-81
2021/06/29 12:17:24;;;;;;;5.65;5.15;;;25.30;70.00;;;;;;5054438;28;20540;-81
2021/06/29 12:19:56;;;;;;;5.45;4.97;;;25.20;70.20;;;;;;5054237;28;20049;-81
2021/06/29 12:22:30;;;;;;;6.10;5.57;;;25.10;70.20;;;;;;5054170;28;20033;-81
2021/06/29 12:24:58;;;;;;;7.60;5.90;;;25.10;70.00;;;;;;5057257;28;20017;-81
2021/06/29 12:27:24;;;;;;;5.78;5.32;;;25.20;69.60;;;;;;5052951;28;20014;-81
2021/06/29 12:29:50;;;;;;;5.57;5.07;;;25.10;69.60;;;;;;5053951;28;20031;-81
2021/06/29 12:32:23;;;;;;;10.32;6.05;;;25.10;69.80;;;;;;5054141;28;20485;-81
2021/06/29 12:34:50;;;;;;;6.55;5.38;;;25.00;69.40;;;;;;5054037;28;20021;-81
2021/06/29 12:37:16;;;;;;;6.50;5.90;;;24.90;69.30;;;;;;5052789;28;20021;-80
2021/06/29 12:39:41;;;;;;;7.85;7.03;;;25.00;68.90;;;;;;5052456;28;20032;-80
2021/06/29 12:42:12;;;;;;;6.60;6.00;;;25.10;68.30;;;;;;5053323;28;20017;-81
2021/06/29 12:44:38;;;;;;;6.38;5.78;;;25.20;68.20;;;;;;5053732;28;20021;-81
2021/06/29 12:47:05;;;;;;;5.80;5.18;;;25.40;68.10;;;;;;5053810;28;20032;-80
2021/06/29 12:49:33;;;;;;;8.52;6.57;;;25.40;67.70;;;;;;5052544;28;20112;-81
2021/06/29 12:52:08;;;;;;;6.30;5.50;;;25.40;67.30;;;;;;5052433;28;20476;-81
2021/06/29 12:54:34;;;;;;;5.63;5.18;;;25.40;67.70;;;;;;5053749;28;20021;-80
2021/06/29 12:57:03;;;;;;;5.95;5.45;;;25.50;67.70;;;;;;5053503;28;20107;-81